Time;durP1;ratioP1;P1;durP2;ratioP2;P2;SDS_P1;SDS_P2;PMS_P1;PMS_P2;Temp;Humidity;BMP_temperature;BMP_pressure;BME280_temperature;BME280_humidity;BME280_pressure;Samples;Min_cycle;Max_cycle;Signal;HPM_P1;HPM_P2
2023/04/24 00:00:14;;;;;;;0.00;0.00;;;;;;;12.78;71.05;100268.22;7358358;19;20010;-66
2023/04/24 00:02:46;;;;;;;0.00;0.00;;;;;;;12.68;71.00;100265.94;7361100;19;20010;-66
2023/04/24 00:05:12;;;;;;;0.00;0.00;;;;;;;12.69;71.31;100270.25;7359739;19;20007;-66
2023/04/24 00:07:37;;;;;;;0.00;0.00;;;;;;;12.64;71.32;100266.97;7350866;19;20025;-66
2023/04/24 00:10:03;;;;;;;0.00;0.00;;;;;;;12.59;71.18;100271.53;7358507;19;20010;-66
2023/04/24 00:12:29;;;;;;;0.00;0.00;;;;;;;12.52;71.42;100262.19;7360488;19;22252;-66
2023/04/24 00:14:54;;;;;;;0.00;0.00;;;;;;;12.50;71.56;100269.25;7359011;19;20552;-66
2023/04/24 00:17:20;;;;;;;0.00;0.00;;;;;;;12.47;70.92;100274.63;7360208;19;20124;-66
2023/04/24 00:19:47;;;;;;;0.00;0.00;;;;;;;12.41;70.83;100270.44;7356913;19;20014;-65
2023/04/24 00:22:14;;;;;;;0.00;0.00;;;;;;;12.31;70.70;100260.34;7356718;19;20712;-66
2023/04/24 00:24:40;;;;;;;0.00;0.00;;;;;;;12.30;70.57;100256.03;7357727;19;20898;-67
2023/04/24 00:27:05;;;;;;;0.00;0.00;;;;;;;12.16;70.71;100246.06;7357244;19;21931;-66
2023/04/24 00:29:31;;;;;;;0.00;0.00;;;;;;;12.23;70.89;100265.03;7359122;19;20011;-66
2023/04/24 00:31:57;;;;;;;0.10;0.10;;;;;;;12.20;70.45;100266.84;7353905;19;20529;-66
2023/04/24 00:34:22;;;;;;;0.00;0.00;;;;;;;12.22;70.87;100269.44;7359325;19;20031;-66
2023/04/24 00:36:51;;;;;;;0.00;0.00;;;;;;;12.19;70.84;100270.38;7350397;19;20089;-66
2023/04/24 00:39:20;;;;;;;0.00;0.00;;;;;;;12.13;70.78;100264.50;7359776;19;20017;-66
2023/04/24 00:41:47;;;;;;;0.00;0.00;;;;;;;12.11;71.18;100255.84;7356356;19;20010;-66
2023/04/24 00:44:13;;;;;;;0.00;0.00;;;;;;;12.10;70.80;100260.22;7359407;19;20038;-66
2023/04/24 00:46:39;;;;;;;0.10;0.10;;;;;;;12.07;70.84;100260.34;7355271;19;20010;-66
2023/04/24 00:49:05;;;;;;;0.00;0.00;;;;;;;12.03;71.43;100263.13;7359427;19;20019;-66
2023/04/24 00:51:32;;;;;;;0.00;0.00;;;;;;;12.03;71.72;100264.00;7354078;19;20017;-66
2023/04/24 00:54:01;;;;;;;0.00;0.00;;;;;;;11.98;71.50;100265.06;7359151;19;20591;-64
2023/04/24 00:56:26;;;;;;;0.00;0.00;;;;;;;11.97;72.34;100264.22;7359083;19;20033;-66
2023/04/24 00:58:52;;;;;;;0.00;0.00;;;;;;;11.96;72.75;100254.63;7361016;19;20006;-66
2023/04/24 01:01:22;;;;;;;0.00;0.00;;;;;;;11.85;72.63;100244.56;7354584;19;20015;-66
2023/04/24 01:03:50;;;;;;;0.00;0.00;;;;;;;11.93;72.32;100254.75;7356965;19;20028;-66
2023/04/24 01:06:16;;;;;;;0.00;0.00;;;;;;;11.90;72.11;100262.69;7354248;19;20016;-65
2023/04/24 01:08:43;;;;;;;0.00;0.00;;;;;;;11.85;72.01;100248.94;7353243;19;20014;-66
2023/04/24 01:11:08;;;;;;;0.00;0.00;;;;;;;11.86;72.03;100261.09;7359142;19;20014;-66
2023/04/24 01:13:34;;;;;;;0.00;0.00;;;;;;;11.79;71.92;100257.81;7357596;19;20022;-66
2023/04/24 01:16:00;;;;;;;0.00;0.00;;;;;;;11.82;71.47;100264.75;7357661;19;20006;-66
2023/04/24 01:18:26;;;;;;;0.00;0.00;;;;;;;11.80;71.38;100269.13;7357506;19;20101;-66
2023/04/24 01:20:56;;;;;;;0.00;0.00;;;;;;;11.80;71.71;100263.91;7357086;19;20090;-66
2023/04/24 01:23:22;;;;;;;0.00;0.00;;;;;;;11.68;72.00;100249.50;7356030;19;20106;-66
2023/04/24 01:25:48;;;;;;;0.00;0.00;;;;;;;11.74;71.60;100264.13;7357319;19;20085;-66
2023/04/24 01:28:14;;;;;;;0.00;0.00;;;;;;;11.71;71.37;100267.72;7355211;19;20566;-66
2023/04/24 01:30:39;;;;;;;0.00;0.00;;;;;;;11.35;71.40;100212.25;7353998;19;20031;-66
2023/04/24 01:33:05;;;;;;;0.00;0.00;;;;;;;11.55;71.58;100248.19;7357321;19;20030;-66
2023/04/24 01:35:31;;;;;;;0.10;0.10;;;;;;;11.65;71.32;100271.34;7354311;19;20026;-67
2023/04/24 01:37:57;;;;;;;0.05;0.05;;;;;;;11.62;71.77;100273.25;7356346;19;20498;-66
2023/04/24 01:40:22;;;;;;;0.00;0.00;;;;;;;11.60;71.51;100275.88;7352369;19;20025;-66
2023/04/24 01:42:48;;;;;;;0.00;0.00;;;;;;;11.59;71.90;100279.41;7357647;19;20038;-66
2023/04/24 01:45:13;;;;;;;0.00;0.00;;;;;;;11.58;72.12;100277.72;7357774;19;20010;-66
2023/04/24 01:47:39;;;;;;;0.00;0.00;;;;;;;11.54;72.07;100278.72;7357311;19;20014;-65
2023/04/24 01:50:05;;;;;;;0.00;0.00;;;;;;;11.52;72.15;100267.47;7354544;19;20014;-66
2023/04/24 01:52:33;;;;;;;0.00;0.00;;;;;;;11.55;72.57;100283.03;7353195;19;20042;-66
2023/04/24 01:55:02;;;;;;;0.00;0.00;;;;;;;11.57;72.18;100280.41;7354228;19;20014;-65
2023/04/24 01:57:30;;;;;;;0.00;0.00;;;;;;;11.56;72.73;100279.53;7355639;19;20014;-66
2023/04/24 01:59:55;;;;;;;0.00;0.00;;;;;;;11.55;72.91;100285.66;7343731;19;20018;-66
2023/04/24 02:02:23;;;;;;;0.00;0.00;;;;;;;11.56;72.88;100278.69;7352279;19;20010;-66
2023/04/24 02:04:48;;;;;;;;;;;;;;;11.62;71.58;100292.41;7352816;19;20074;-66
2023/04/24 02:07:14;;;;;;;0.00;0.00;;;;;;;11.57;72.78;100286.47;7353599;19;20330;-66
2023/04/24 02:09:39;;;;;;;0.00;0.00;;;;;;;11.59;73.04;100281.19;7351058;19;20010;-66
2023/04/24 02:12:05;;;;;;;0.08;0.08;;;;;;;11.61;72.77;100288.09;7354303;19;20639;-66
2023/04/24 02:14:30;;;;;;;0.00;0.00;;;;;;;11.61;72.93;100288.09;7350669;19;20710;-66
2023/04/24 02:16:56;;;;;;;0.00;0.00;;;;;;;11.47;73.24;100264.16;7348221;19;20007;-66
2023/04/24 02:19:21;;;;;;;0.00;0.00;;;;;;;11.50;73.21;100269.25;7353374;19;20009;-66
2023/04/24 02:21:46;;;;;;;0.00;0.00;;;;;;;11.64;73.04;100293.19;7352273;19;20011;-66
2023/04/24 02:24:12;;;;;;;0.00;0.00;;;;;;;11.65;73.34;100294.91;7348517;19;20082;-66
2023/04/24 02:26:37;;;;;;;0.00;0.00;;;;;;;11.67;72.90;100293.09;7354281;19;20006;-66
2023/04/24 02:29:03;;;;;;;0.10;0.10;;;;;;;11.53;73.16;100269.16;7351444;19;20010;-67
2023/04/24 02:31:28;;;;;;;0.00;0.00;;;;;;;11.60;72.74;100281.13;7349127;19;20013;-66
2023/04/24 02:33:53;;;;;;;0.00;0.00;;;;;;;11.70;73.34;100295.59;7350914;19;20014;-65
2023/04/24 02:36:19;;;;;;;0.00;0.00;;;;;;;11.72;73.08;100306.03;7354239;19;20017;-66
2023/04/24 02:38:45;;;;;;;0.00;0.00;;;;;;;11.72;72.88;100302.56;7350221;19;20027;-66
2023/04/24 02:41:10;;;;;;;0.00;0.00;;;;;;;11.66;73.28;100293.16;7349246;19;20102;-67
2023/04/24 02:43:36;;;;;;;0.00;0.00;;;;;;;11.74;73.51;100303.34;7347604;19;20027;-66
2023/04/24 02:46:01;;;;;;;0.00;0.00;;;;;;;11.72;73.13;100308.66;7349407;19;20023;-67
2023/04/24 02:48:27;;;;;;;0.00;0.00;;;;;;;11.73;73.28;100305.13;7348114;19;20006;-66
2023/04/24 02:50:52;;;;;;;0.10;0.10;;;;;;;11.64;73.20;100287.13;7350914;19;20010;-67
2023/04/24 02:53:18;;;;;;;0.00;0.00;;;;;;;11.78;73.04;100310.19;7350071;19;20032;-66
2023/04/24 02:55:43;;;;;;;0.03;0.03;;;;;;;11.78;73.29;100304.97;7349575;19;20613;-66
2023/04/24 02:58:10;;;;;;;0.00;0.00;;;;;;;11.78;73.46;100304.97;7350857;19;20830;-66
2023/04/24 03:00:35;;;;;;;0.10;0.10;;;;;;;11.79;73.28;100307.53;7347056;19;20045;-66
2023/04/24 03:03:01;;;;;;;0.00;0.00;;;;;;;11.70;73.18;100292.13;7331715;19;20015;-66
2023/04/24 03:05:27;;;;;;;0.00;0.00;;;;;;;11.79;73.10;100302.28;7353788;19;20010;-66
2023/04/24 03:07:52;;;;;;;0.00;0.00;;;;;;;11.80;73.16;100309.22;7351474;19;20014;-66
2023/04/24 03:10:18;;;;;;;0.00;0.00;;;;;;;11.80;73.61;100309.22;7356079;19;20924;-65
2023/04/24 03:12:43;;;;;;;0.00;0.00;;;;;;;11.81;73.48;100313.56;7359278;19;20034;-66
2023/04/24 03:15:09;;;;;;;0.00;0.00;;;;;;;11.81;73.48;100307.47;7359871;19;20039;-67
2023/04/24 03:17:35;;;;;;;0.00;0.00;;;;;;;11.81;73.02;100313.56;7357326;19;20010;-67
2023/04/24 03:20:01;;;;;;;0.00;0.00;;;;;;;11.81;73.33;100305.72;7338967;19;20025;-66
2023/04/24 03:22:26;;;;;;;0.10;0.10;;;;;;;11.83;73.75;100313.53;7353590;19;20042;-66
2023/04/24 03:24:52;;;;;;;0.10;0.10;;;;;;;11.77;73.69;100303.25;7357396;19;20015;-66
2023/04/24 03:27:17;;;;;;;0.00;0.00;;;;;;;11.68;73.80;100294.81;7353728;19;20006;-66
2023/04/24 03:29:43;;;;;;;0.00;0.00;;;;;;;11.83;73.43;100309.16;7357901;19;20046;-66
2023/04/24 03:32:08;;;;;;;0.00;0.00;;;;;;;11.82;73.33;100317.06;7355063;19;20396;-66
2023/04/24 03:34:34;;;;;;;0.00;0.00;;;;;;;11.85;73.58;100316.94;7355845;19;20022;-66
2023/04/24 03:37:00;;;;;;;0.00;0.00;;;;;;;11.84;73.60;100321.34;7351180;19;20090;-66
2023/04/24 03:39:25;;;;;;;0.00;0.00;;;;;;;11.80;74.03;100311.84;7356412;19;20078;-65
2023/04/24 03:41:51;;;;;;;0.00;0.00;;;;;;;11.86;74.04;100323.88;7355793;19;20819;-66
2023/04/24 03:44:16;;;;;;;0.00;0.00;;;;;;;11.86;74.46;100318.66;7358307;19;20044;-66
2023/04/24 03:46:41;;;;;;;0.05;0.05;;;;;;;11.86;74.10;100330.00;7354671;19;21591;-66
2023/04/24 03:49:07;;;;;;;0.00;0.00;;;;;;;11.85;74.41;100324.81;7355106;19;20030;-65
2023/04/24 03:51:32;;;;;;;0.00;0.00;;;;;;;11.86;74.14;100334.34;7351498;19;20006;-66
2023/04/24 03:53:57;;;;;;;0.00;0.00;;;;;;;11.86;74.26;100335.25;7356372;19;20098;-67
2023/04/24 03:56:23;;;;;;;0.00;0.00;;;;;;;11.86;74.67;100335.25;7353914;19;20014;-66
2023/04/24 03:58:48;;;;;;;0.10;0.10;;;;;;;11.85;74.72;100333.50;7354135;19;20347;-66
2023/04/24 04:01:15;;;;;;;0.00;0.00;;;;;;;11.85;74.69;100327.41;7356463;19;20040;-66
2023/04/24 04:03:41;;;;;;;0.00;0.00;;;;;;;11.84;74.63;100323.94;7357304;19;20026;-66
2023/04/24 04:06:07;;;;;;;0.10;0.10;;;;;;;11.81;74.35;100324.03;7350621;19;20006;-66
2023/04/24 04:08:32;;;;;;;0.00;0.00;;;;;;;11.79;74.84;100327.59;7354657;19;20041;-67
2023/04/24 04:10:57;;;;;;;0.05;0.05;;;;;;;11.72;74.83;100326.09;7354382;19;20034;-67
2023/04/24 04:13:23;;;;;;;0.00;0.00;;;;;;;11.72;74.77;100332.19;7356251;19;20862;-66
2023/04/24 04:15:48;;;;;;;0.00;0.00;;;;;;;11.70;74.92;100334.84;7354571;19;20778;-66
2023/04/24 04:18:14;;;;;;;0.08;0.08;;;;;;;11.67;75.35;100334.97;7356532;19;20010;-66
2023/04/24 04:20:39;;;;;;;0.00;0.00;;;;;;;11.64;75.03;100335.03;7353859;19;20080;-66
2023/04/24 04:23:04;;;;;;;0.00;0.00;;;;;;;11.65;75.16;100335.91;7356900;19;20026;-66
2023/04/24 04:25:30;;;;;;;0.00;0.00;;;;;;;11.65;75.32;100341.13;7354331;19;20014;-65
2023/04/24 04:27:55;;;;;;;0.00;0.00;;;;;;;11.65;75.24;100346.34;7356972;19;20074;-66
2023/04/24 04:30:21;;;;;;;0.00;0.00;;;;;;;11.64;75.40;100344.66;7350695;19;20654;-66
2023/04/24 04:32:47;;;;;;;0.00;0.00;;;;;;;11.64;75.44;100340.28;7354689;19;20011;-67
2023/04/24 04:35:12;;;;;;;0.00;0.00;;;;;;;11.63;75.37;100349.03;7353755;19;20013;-66
2023/04/24 04:37:38;;;;;;;0.00;0.00;;;;;;;11.61;75.64;100347.38;7350180;19;20126;-66
2023/04/24 04:40:06;;;;;;;0.00;0.00;;;;;;;11.51;75.10;100338.97;7353455;19;20014;-67
2023/04/24 04:42:33;;;;;;;0.00;0.00;;;;;;;11.60;75.32;100351.72;7353537;19;20014;-66
2023/04/24 04:45:00;;;;;;;0.00;0.00;;;;;;;11.47;75.16;100339.97;7352616;19;20018;-66
2023/04/24 04:47:26;;;;;;;0.00;0.00;;;;;;;11.45;75.27;100339.16;7353875;19;20034;-66
2023/04/24 04:49:52;;;;;;;0.00;0.00;;;;;;;11.49;75.69;100346.00;7355839;19;20014;-66
2023/04/24 04:52:18;;;;;;;0.00;0.00;;;;;;;11.51;75.34;100364.28;7352592;19;20738;-66
2023/04/24 04:54:44;;;;;;;0.00;0.00;;;;;;;11.51;75.61;100372.13;7354811;19;20029;-66
2023/04/24 04:57:10;;;;;;;0.00;0.00;;;;;;;11.49;75.42;100373.91;7345088;19;20011;-66
2023/04/24 04:59:36;;;;;;;0.00;0.00;;;;;;;11.45;75.47;100381.00;7354814;19;20055;-66
2023/04/24 05:02:02;;;;;;;0.00;0.00;;;;;;;11.42;75.59;100381.09;7352729;19;20716;-66
2023/04/24 05:04:27;;;;;;;0.00;0.00;;;;;;;11.38;75.11;100390.78;7353528;19;20019;-66
2023/04/24 05:06:53;;;;;;;0.00;0.00;;;;;;;11.36;75.39;100391.75;7353272;19;20010;-66
2023/04/24 05:09:18;;;;;;;0.00;0.00;;;;;;;11.32;75.49;100396.22;7353454;19;20042;-67
2023/04/24 05:11:44;;;;;;;0.00;0.00;;;;;;;11.30;75.55;100397.16;7354913;19;20029;-66
2023/04/24 05:14:09;;;;;;;0.00;0.00;;;;;;;11.26;75.34;100406.88;7352733;19;20010;-66
2023/04/24 05:16:36;;;;;;;0.00;0.00;;;;;;;11.22;75.30;100407.00;7351384;19;20014;-67
2023/04/24 05:19:02;;;;;;;0.00;0.00;;;;;;;11.12;74.99;100404.66;7355168;19;20058;-66
2023/04/24 05:21:27;;;;;;;0.03;0.03;;;;;;;11.17;75.05;100421.06;7355275;19;20029;-66
2023/04/24 05:23:53;;;;;;;0.00;0.00;;;;;;;11.00;75.02;100409.38;7353392;19;20011;-66
2023/04/24 05:26:19;;;;;;;0.00;0.00;;;;;;;11.09;75.04;100440.47;7352586;19;20010;-66
2023/04/24 05:28:44;;;;;;;0.00;0.00;;;;;;;11.05;75.18;100439.72;7352240;19;20014;-66
2023/04/24 05:31:10;;;;;;;0.00;0.00;;;;;;;11.01;74.88;100438.09;7353855;19;20027;-66
2023/04/24 05:33:35;;;;;;;0.00;0.00;;;;;;;10.98;75.28;100448.63;7352013;19;20014;-66
2023/04/24 05:36:00;;;;;;;0.00;0.00;;;;;;;10.95;75.06;100448.72;7355007;19;20037;-66
2023/04/24 05:38:26;;;;;;;0.00;0.00;;;;;;;10.93;75.04;100454.88;7353218;19;20017;-66
2023/04/24 05:40:51;;;;;;;0.00;0.00;;;;;;;10.86;74.71;100448.97;7355041;19;20709;-67
2023/04/24 05:43:17;;;;;;;0.08;0.08;;;;;;;10.85;75.08;100453.34;7351622;19;21203;-66
2023/04/24 05:45:42;;;;;;;0.00;0.00;;;;;;;10.85;75.16;100463.78;7351861;19;20014;-66
2023/04/24 05:48:07;;;;;;;0.00;0.00;;;;;;;10.85;74.68;100468.16;7351699;19;20002;-66
2023/04/24 05:50:33;;;;;;;0.00;0.00;;;;;;;10.83;75.14;100470.78;7350327;19;20372;-66
2023/04/24 05:52:58;;;;;;;0.00;0.00;;;;;;;10.83;74.91;100477.78;7348204;19;20558;-68
2023/04/24 05:55:25;;;;;;;0.00;0.00;;;;;;;10.80;75.18;100470.91;7348730;19;20002;-67
2023/04/24 05:57:50;;;;;;;0.00;0.00;;;;;;;10.80;75.19;100476.13;7343461;19;20025;-66
2023/04/24 06:00:17;;;;;;;0.00;0.00;;;;;;;10.79;75.27;100481.38;7353423;19;20011;-66
2023/04/24 06:02:43;;;;;;;0.00;0.00;;;;;;;10.79;74.94;100483.97;7354752;19;20014;-66
2023/04/24 06:05:09;;;;;;;0.00;0.00;;;;;;;10.77;75.37;100491.88;7350944;19;20029;-66
2023/04/24 06:07:34;;;;;;;0.00;0.00;;;;;;;10.77;75.05;100498.84;7349916;19;20021;-67
2023/04/24 06:10:00;;;;;;;0.00;0.00;;;;;;;10.75;75.13;100503.25;7353552;19;20569;-66
2023/04/24 06:12:26;;;;;;;0.00;0.00;;;;;;;10.75;75.05;100508.50;7353011;19;20010;-66
2023/04/24 06:14:51;;;;;;;0.03;0.03;;;;;;;10.73;74.78;100510.25;7353398;19;20030;-66
2023/04/24 06:17:17;;;;;;;0.00;0.00;;;;;;;10.72;74.79;100514.63;7352897;19;20011;-66
2023/04/24 06:19:42;;;;;;;0.00;0.00;;;;;;;10.71;74.83;100517.28;7352606;19;20023;-66
2023/04/24 06:22:08;;;;;;;0.00;0.00;;;;;;;10.69;74.97;100513.84;7351549;19;20010;-68
2023/04/24 06:24:34;;;;;;;0.08;0.08;;;;;;;10.57;74.66;100505.44;7353848;19;20013;-67
2023/04/24 06:27:01;;;;;;;0.00;0.00;;;;;;;10.65;75.32;100516.56;7353922;19;20050;-68
2023/04/24 06:29:27;;;;;;;0.00;0.00;;;;;;;10.63;74.90;100520.94;7353499;19;20106;-68
2023/04/24 06:31:52;;;;;;;0.00;0.00;;;;;;;10.62;75.29;100523.59;7347256;19;26901;-68
2023/04/24 06:34:17;;;;;;;0.10;0.10;;;;;;;10.61;75.37;100522.75;7353857;19;20570;-67
2023/04/24 06:36:43;;;;;;;0.10;0.10;;;;;;;10.60;75.16;100525.41;7346632;19;20010;-68
2023/04/24 06:39:09;;;;;;;0.00;0.00;;;;;;;10.58;74.93;100527.19;7352268;19;20021;-67
2023/04/24 06:41:34;;;;;;;0.00;0.00;;;;;;;10.56;75.06;100535.06;7351083;19;20538;-68
2023/04/24 06:44:00;;;;;;;0.00;0.00;;;;;;;10.45;75.20;100526.66;7351682;19;20021;-68
2023/04/24 06:46:27;;;;;;;0.00;0.00;;;;;;;10.53;74.94;100540.34;7334396;19;20025;-68
2023/04/24 06:48:55;;;;;;;0.00;0.00;;;;;;;10.52;74.84;100543.88;7335900;19;20022;-68
2023/04/24 06:51:25;;;;;;;0.00;0.00;;;;;;;10.52;75.22;100549.09;7355153;19;20479;-67
2023/04/24 06:53:51;;;;;;;0.00;0.00;;;;;;;10.10;75.11;100483.97;7358076;19;20018;-67
2023/04/24 06:56:17;;;;;;;0.00;0.00;;;;;;;10.50;75.49;100550.03;7354764;19;20915;-66
2023/04/24 06:58:43;;;;;;;0.00;0.00;;;;;;;10.49;75.01;100558.75;7357266;19;20014;-68
2023/04/24 07:01:08;;;;;;;0.00;0.00;;;;;;;10.50;75.29;100556.13;7357305;19;20058;-66
2023/04/24 07:03:34;;;;;;;0.00;0.00;;;;;;;10.31;75.19;100536.56;7352187;19;20509;-67
2023/04/24 07:05:59;;;;;;;0.00;0.00;;;;;;;10.50;75.20;100563.94;7353907;19;20013;-67
2023/04/24 07:08:25;;;;;;;0.00;0.00;;;;;;;10.49;75.16;100564.84;7353825;19;20371;-67
2023/04/24 07:10:51;;;;;;;0.00;0.00;;;;;;;10.50;75.04;100570.91;7358998;19;20067;-67
2023/04/24 07:13:17;;;;;;;0.10;0.10;;;;;;;10.50;75.38;100577.00;7355371;19;20032;-67
2023/04/24 07:15:42;;;;;;;0.08;0.08;;;;;;;10.50;75.50;100581.38;7359515;19;20348;-68
2023/04/24 07:18:08;;;;;;;0.00;0.00;;;;;;;10.51;75.33;100577.84;7352206;19;20018;-68
2023/04/24 07:20:33;;;;;;;0.00;0.00;;;;;;;10.52;75.46;100575.19;7357907;19;20011;-67
2023/04/24 07:22:59;;;;;;;0.00;0.00;;;;;;;10.45;75.11;100570.19;7358326;19;20011;-67
2023/04/24 07:25:24;;;;;;;0.00;0.00;;;;;;;10.52;75.07;100580.41;7361919;19;20886;-68
2023/04/24 07:27:50;;;;;;;0.08;0.08;;;;;;;10.50;75.33;100586.59;7352134;19;20475;-67
2023/04/24 07:30:15;;;;;;;0.00;0.00;;;;;;;10.52;75.51;100585.63;7358866;19;20490;-68
2023/04/24 07:32:41;;;;;;;0.10;0.10;;;;;;;10.54;75.25;100593.44;7353369;19;20036;-67
2023/04/24 07:35:07;;;;;;;0.00;0.00;;;;;;;10.29;75.41;100552.28;7355625;19;20031;-67
2023/04/24 07:37:32;;;;;;;0.00;0.00;;;;;;;10.53;75.28;100597.78;7359387;19;20126;-66
2023/04/24 07:39:58;;;;;;;0.00;0.00;;;;;;;10.50;75.62;100597.03;7352698;19;20609;-68
2023/04/24 07:42:23;;;;;;;0.08;0.08;;;;;;;10.55;75.13;100601.25;7356223;19;20011;-67
2023/04/24 07:44:48;;;;;;;0.00;0.00;;;;;;;10.56;74.94;100607.31;7344229;19;20070;-67
2023/04/24 07:47:17;;;;;;;0.00;0.00;;;;;;;10.59;75.26;100609.84;7348237;19;20014;-68
2023/04/24 07:49:42;;;;;;;0.00;0.00;;;;;;;10.57;74.99;100606.41;7358873;19;21103;-67
2023/04/24 07:52:08;;;;;;;0.00;0.00;;;;;;;10.56;75.13;100602.94;7358777;19;20002;-67
2023/04/24 07:54:34;;;;;;;0.00;0.00;;;;;;;10.62;74.92;100602.78;7357811;19;20045;-67
2023/04/24 07:57:00;;;;;;;0.00;0.00;;;;;;;10.66;74.90;100619.25;7359590;19;20013;-67
2023/04/24 07:59:26;;;;;;;0.00;0.00;;;;;;;10.67;74.93;100620.97;7354300;19;20022;-66
2023/04/24 08:01:51;;;;;;;0.00;0.00;;;;;;;10.64;75.01;100615.81;7361291;19;20033;-67
2023/04/24 08:04:17;;;;;;;0.00;0.00;;;;;;;10.74;74.93;100632.13;7358841;19;20015;-67
2023/04/24 08:06:43;;;;;;;0.00;0.00;;;;;;;10.75;74.84;100633.84;7360129;19;20017;-67
2023/04/24 08:09:09;;;;;;;0.00;0.00;;;;;;;10.78;74.96;100629.38;7358032;19;20010;-67
2023/04/24 08:11:34;;;;;;;0.00;0.00;;;;;;;10.85;74.82;100636.19;7359157;19;21935;-67
2023/04/24 08:13:59;;;;;;;0.00;0.00;;;;;;;10.89;74.42;100636.97;7359051;19;20047;-67
2023/04/24 08:16:25;;;;;;;0.00;0.00;;;;;;;10.95;74.53;100642.06;7355571;19;20114;-67
2023/04/24 08:18:50;;;;;;;0.00;0.00;;;;;;;10.84;74.81;100617.94;7359703;19;20541;-67
2023/04/24 08:21:18;;;;;;;0.00;0.00;;;;;;;11.07;74.75;100646.09;7354977;19;20089;-68
2023/04/24 08:23:44;;;;;;;0.00;0.00;;;;;;;11.09;74.49;100639.91;7358584;19;20032;-65
2023/04/24 08:26:11;;;;;;;0.00;0.00;;;;;;;11.19;74.51;100653.63;7354327;19;20770;-67
2023/04/24 08:28:36;;;;;;;0.00;0.00;;;;;;;11.23;74.40;100651.78;7359121;19;20018;-67
2023/04/24 08:31:02;;;;;;;0.10;0.10;;;;;;;11.31;74.19;100644.63;7357281;19;20903;-68
2023/04/24 08:33:32;;;;;;;0.00;0.00;;;;;;;11.40;74.44;100654.81;7356610;19;20023;-66
2023/04/24 08:36:00;;;;;;;0.00;0.00;;;;;;;11.49;74.17;100665.03;7353874;19;20029;-67
2023/04/24 08:38:25;;;;;;;;;;;;;;;11.59;74.22;100661.25;7357627;19;20611;-68
2023/04/24 08:40:50;;;;;;;0.00;0.00;;;;;;;11.61;73.53;100662.09;7357571;19;20705;-67
2023/04/24 08:43:16;;;;;;;0.00;0.00;;;;;;;11.66;73.51;100662.81;7352654;19;20961;-67
2023/04/24 08:45:42;;;;;;;0.10;0.10;;;;;;;11.64;73.31;100653.28;7338607;19;20422;-66
2023/04/24 08:48:09;;;;;;;0.10;0.10;;;;;;;11.76;73.48;100670.38;7359044;19;20002;-67
2023/04/24 08:50:35;;;;;;;0.00;0.00;;;;;;;11.75;73.17;100666.91;7360108;19;20014;-67
2023/04/24 08:53:01;;;;;;;0.00;0.00;;;;;;;11.85;72.94;100680.63;7354456;19;20022;-67
2023/04/24 08:55:28;;;;;;;0.03;0.03;;;;;;;11.88;73.01;100680.56;7355076;19;20027;-67
2023/04/24 08:57:54;;;;;;;0.00;0.00;;;;;;;11.92;72.59;100684.81;7356012;19;20038;-66
2023/04/24 09:00:22;;;;;;;0.00;0.00;;;;;;;11.92;72.57;100679.56;7356195;19;20074;-67
2023/04/24 09:02:52;;;;;;;0.00;0.00;;;;;;;11.97;72.04;100688.16;7354957;19;20013;-68
2023/04/24 09:05:20;;;;;;;0.00;0.00;;;;;;;11.89;71.85;100679.66;7355261;19;20010;-67
2023/04/24 09:07:53;;;;;;;0.03;0.03;;;;;;;11.93;71.97;100694.38;7353813;19;20021;-67
2023/04/24 09:10:19;;;;;;;0.00;0.00;;;;;;;11.94;71.64;100696.06;7357321;19;20018;-68
2023/04/24 09:12:45;;;;;;;0.00;0.00;;;;;;;11.89;71.91;100690.13;7357616;19;20082;-67
2023/04/24 09:15:11;;;;;;;0.00;0.00;;;;;;;11.91;72.13;100706.63;7355112;19;20106;-68
2023/04/24 09:17:36;;;;;;;0.00;0.00;;;;;;;11.89;71.86;100711.03;7355855;19;20018;-68
2023/04/24 09:20:02;;;;;;;0.00;0.00;;;;;;;11.87;71.76;100710.25;7357320;19;20018;-67
2023/04/24 09:22:31;;;;;;;0.10;0.10;;;;;;;11.84;71.91;100708.56;7358701;19;22222;-67
2023/04/24 09:25:03;;;;;;;0.10;0.10;;;;;;;11.89;72.52;100716.28;7358965;19;20027;-68
2023/04/24 09:27:28;;;;;;;0.00;0.00;;;;;;;11.89;72.73;100717.13;7355871;19;20017;-67
2023/04/24 09:29:58;;;;;;;0.00;0.00;;;;;;;11.93;72.24;100717.91;7356191;19;22358;-67
2023/04/24 09:32:25;;;;;;;0.00;0.00;;;;;;;11.87;72.33;100707.63;7357372;19;20014;-67
2023/04/24 09:35:06;;;;;;;0.00;0.00;;;;;;;12.04;71.76;100720.22;7357293;19;20015;-67
2023/04/24 09:37:35;;;;;;;0.00;0.00;;;;;;;12.04;72.08;100726.31;7353461;19;20079;-67
2023/04/24 09:40:18;;;;;;;0.00;0.00;;;;;;;12.08;71.87;100732.34;7359321;19;20017;-67
2023/04/24 09:42:45;;;;;;;0.10;0.10;;;;;;;12.06;72.09;100724.50;7355935;19;20074;-67
2023/04/24 09:45:12;;;;;;;0.00;0.00;;;;;;;12.06;72.13;100721.88;7357265;19;20503;-66
2023/04/24 09:47:41;;;;;;;0.00;0.00;;;;;;;12.10;72.16;100726.13;7355897;19;20017;-67
2023/04/24 09:50:24;;;;;;;0.00;0.00;;;;;;;12.19;71.73;100728.50;7354936;19;20014;-67
2023/04/24 09:53:03;;;;;;;0.00;0.00;;;;;;;12.24;71.52;100732.75;7352097;19;20531;-68
2023/04/24 09:55:29;;;;;;;0.00;0.00;;;;;;;12.28;71.50;100739.63;7357451;19;20018;-67
2023/04/24 09:57:56;;;;;;;0.00;0.00;;;;;;;12.36;71.31;100737.63;7357718;19;22440;-67
2023/04/24 10:00:23;;;;;;;0.00;0.00;;;;;;;12.45;71.49;100739.97;7350595;19;20014;-68
2023/04/24 10:02:59;;;;;;;0.10;0.10;;;;;;;12.57;70.79;100746.59;7356045;19;20836;-67
2023/04/24 10:05:40;;;;;;;0.10;0.10;;;;;;;12.65;71.07;100755.09;7352939;19;20038;-68
2023/04/24 10:08:09;;;;;;;0.00;0.00;;;;;;;12.60;70.16;100736.03;7354885;19;20518;-68
2023/04/24 10:10:38;;;;;;;0.10;0.10;;;;;;;12.75;69.56;100755.66;7355563;19;20554;-66
2023/04/24 10:13:04;;;;;;;0.10;0.10;;;;;;;12.70;69.69;100740.09;7357067;19;20446;-68
2023/04/24 10:15:30;;;;;;;0.08;0.08;;;;;;;12.85;68.96;100757.09;7355333;19;20037;-67
2023/04/24 10:17:58;;;;;;;0.00;0.00;;;;;;;12.90;69.24;100750.81;7358618;19;20017;-68
2023/04/24 10:20:25;;;;;;;0.00;0.00;;;;;;;12.96;69.08;100752.38;7361744;19;21161;-67
2023/04/24 10:22:52;;;;;;;0.00;0.00;;;;;;;13.02;68.54;100757.41;7360774;19;20658;-67
2023/04/24 10:25:23;;;;;;;0.00;0.00;;;;;;;13.10;67.43;100767.66;7365467;19;20454;-67
2023/04/24 10:27:50;;;;;;;0.00;0.00;;;;;;;13.11;67.24;100770.22;7362228;19;20094;-67
2023/04/24 10:30:17;;;;;;;0.00;0.00;;;;;;;13.12;67.02;100764.06;7360797;19;20034;-67
2023/04/24 10:32:42;;;;;;;0.10;0.10;;;;;;;13.12;67.50;100761.44;7363059;19;20018;-67
2023/04/24 10:35:09;;;;;;;0.00;0.00;;;;;;;13.02;67.85;100753.94;7360718;19;20023;-68
2023/04/24 10:37:44;;;;;;;0.00;0.00;;;;;;;13.14;67.73;100769.28;7354817;19;20006;-68
2023/04/24 10:40:10;;;;;;;0.00;0.00;;;;;;;13.02;67.51;100756.56;7360234;19;21045;-67
2023/04/24 10:42:41;;;;;;;0.00;0.00;;;;;;;13.17;67.92;100771.78;7359187;19;20050;-66
2023/04/24 10:45:15;;;;;;;0.10;0.10;;;;;;;13.14;67.05;100780.63;7360891;19;20022;-65
2023/04/24 10:47:42;;;;;;;0.03;0.03;;;;;;;13.14;67.31;100778.00;7361436;19;20463;-67
2023/04/24 10:50:10;;;;;;;0.03;0.03;;;;;;;13.18;67.35;100773.53;7361971;19;20006;-67
2023/04/24 10:52:51;;;;;;;0.00;0.00;;;;;;;13.21;67.54;100774.31;7356858;19;20011;-67
2023/04/24 10:55:36;;;;;;;0.00;0.00;;;;;;;13.22;67.24;100773.38;7358163;19;20010;-67
2023/04/24 10:58:03;;;;;;;0.00;0.00;;;;;;;13.33;67.63;100780.94;7361034;19;20003;-67
2023/04/24 11:00:29;;;;;;;0.10;0.10;;;;;;;13.48;67.52;100774.28;7358423;19;20022;-66
2023/04/24 11:02:55;;;;;;;0.00;0.00;;;;;;;13.82;67.63;100781.03;7358332;19;20023;-67
2023/04/24 11:05:22;;;;;;;0.05;0.05;;;;;;;14.15;66.83;100792.97;7360102;19;20010;-67
2023/04/24 11:08:13;;;;;;;0.00;0.00;;;;;;;14.70;67.84;100798.84;7359571;19;20454;-67
2023/04/24 11:10:43;;;;;;;0.10;0.10;;;;;;;15.07;65.19;100794.78;7258733;19;2004541;-67
2023/04/24 11:13:09;;;;;;;0.10;0.10;;;;;;;15.40;64.48;100791.69;7359012;19;20017;-67
2023/04/24 11:15:34;;;;;;;0.10;0.10;;;;;;;15.61;64.11;100771.50;7362225;19;20014;-67
2023/04/24 11:17:59;;;;;;;0.10;0.10;;;;;;;15.74;63.35;100743.78;7360057;19;20025;-67
2023/04/24 11:20:26;;;;;;;0.00;0.00;;;;;;;16.46;62.06;100794.13;7361374;19;20030;-67
2023/04/24 11:22:54;;;;;;;0.10;0.10;;;;;;;16.89;61.61;100793.94;7361654;19;20037;-67